createdAt,value
2022-10-19T00:00:10.024Z,68.48
2022-10-19T00:02:40.661Z,69.65
2022-10-19T00:05:11.449Z,70.28
2022-10-19T00:07:42.319Z,70.54
2022-10-19T00:10:12.723Z,71.28
2022-10-19T00:12:43.228Z,70.88
2022-10-19T00:15:13.768Z,72.04
2022-10-19T00:17:44.455Z,72.36
2022-10-19T00:20:14.832Z,72.92
2022-10-19T00:22:45.274Z,73.00
2022-10-19T00:25:15.645Z,73.97
2022-10-19T00:27:46.204Z,73.22
2022-10-19T00:30:16.911Z,72.79
2022-10-19T00:32:47.250Z,72.72
2022-10-19T00:35:17.879Z,71.72
2022-10-19T00:37:48.385Z,71.26
2022-10-19T00:40:18.897Z,70.78
2022-10-19T00:42:55.102Z,71.07
2022-10-19T00:45:25.576Z,70.93
2022-10-19T00:47:56.204Z,70.32
2022-10-19T00:50:26.607Z,70.64
2022-10-19T00:52:57.400Z,70.32
2022-10-19T00:55:27.865Z,69.93
2022-10-19T00:57:58.715Z,70.00
2022-10-19T01:00:35.954Z,70.01
2022-10-19T01:03:11.249Z,69.60
2022-10-19T01:05:46.460Z,69.72
2022-10-19T01:08:26.152Z,69.73
2022-10-19T01:11:31.786Z,69.37
2022-10-19T01:14:54.255Z,69.72
2022-10-19T01:17:47.912Z,69.60
2022-10-19T01:21:02.137Z,69.82
2022-10-19T01:23:59.435Z,69.78
2022-10-19T01:27:01.905Z,69.34
2022-10-19T01:29:59.474Z,69.78
2022-10-19T01:32:59.391Z,69.67
2022-10-19T01:35:45.609Z,69.08
2022-10-19T01:38:50.929Z,69.05
2022-10-19T01:41:36.538Z,69.10
2022-10-19T01:44:23.018Z,69.40
2022-10-19T01:47:07.185Z,69.04
2022-10-19T01:49:54.726Z,68.86
2022-10-19T01:52:33.296Z,69.52
2022-10-19T01:55:07.498Z,69.52
2022-10-19T01:57:48.717Z,68.88
2022-10-19T02:00:21.612Z,68.90
2022-10-19T02:02:55.826Z,69.14
2022-10-19T02:05:34.701Z,69.32
2022-10-19T02:08:22.443Z,69.19
2022-10-19T02:10:55.037Z,69.30
2022-10-19T02:13:30.464Z,69.31
2022-10-19T02:16:05.030Z,69.51
2022-10-19T02:18:43.279Z,69.36
2022-10-19T02:21:15.748Z,69.29
2022-10-19T02:23:51.885Z,69.28
2022-10-19T02:26:26.875Z,69.35
2022-10-19T02:29:03.995Z,69.37
2022-10-19T02:31:41.739Z,69.06
2022-10-19T02:34:17.591Z,69.06
2022-10-19T02:36:50.779Z,69.16
2022-10-19T02:39:26.168Z,69.41
2022-10-19T02:42:07.364Z,69.46
2022-10-19T02:44:44.641Z,69.12
2022-10-19T02:47:56.297Z,69.66
2022-10-19T02:50:28.981Z,69.39
2022-10-19T02:53:06.901Z,69.32
2022-10-19T02:55:44.783Z,69.76
2022-10-19T02:58:22.832Z,69.14
2022-10-19T03:00:53.984Z,69.61
2022-10-19T03:03:34.003Z,69.07
2022-10-19T03:06:05.406Z,69.52
2022-10-19T03:08:39.697Z,69.13
2022-10-19T03:11:19.790Z,69.68
2022-10-19T03:13:51.746Z,69.46
2022-10-19T03:16:25.547Z,69.52
2022-10-19T03:19:13.333Z,69.29
2022-10-19T03:21:49.928Z,69.48
2022-10-19T03:24:23.900Z,69.25
2022-10-19T03:26:57.510Z,69.23
2022-10-19T03:29:29.932Z,69.62
2022-10-19T03:32:13.976Z,69.93
2022-10-19T03:34:53.263Z,69.86
2022-10-19T03:37:29.405Z,69.79
2022-10-19T03:43:28.022Z,70.04
2022-10-19T03:46:15.942Z,69.54
2022-10-19T03:48:49.982Z,69.86
2022-10-19T03:51:29.773Z,69.81
2022-10-19T03:54:10.596Z,69.86
2022-10-19T03:56:48.386Z,70.25
2022-10-19T03:59:22.792Z,69.87
2022-10-19T04:04:48.366Z,70.13
2022-10-19T04:07:19.247Z,70.62
2022-10-19T04:09:50.214Z,70.37
2022-10-19T04:12:21.073Z,70.69
2022-10-19T04:14:57.179Z,70.46
2022-10-19T04:17:29.040Z,70.63
2022-10-19T04:20:00.358Z,70.40
2022-10-19T04:22:31.459Z,70.30
2022-10-19T04:25:03.355Z,70.14
2022-10-19T04:27:34.311Z,70.23
2022-10-19T04:30:06.128Z,70.54
2022-10-19T04:32:42.114Z,70.32
2022-10-19T04:35:12.965Z,70.12
2022-10-19T04:37:43.701Z,69.99
2022-10-19T04:40:15.136Z,69.86
2022-10-19T04:42:46.560Z,70.19
2022-10-19T04:45:17.878Z,70.43
2022-10-19T04:47:49.139Z,70.14
2022-10-19T04:50:20.792Z,70.00
2022-10-19T04:53:00.080Z,70.42
2022-10-19T04:55:31.530Z,69.90
2022-10-19T04:58:03.013Z,69.81
2022-10-19T05:00:34.761Z,70.01
2022-10-19T05:03:05.964Z,69.82
2022-10-19T05:05:37.251Z,69.86
2022-10-19T05:08:08.592Z,69.98
2022-10-19T05:10:42.162Z,70.10
2022-10-19T05:13:16.680Z,69.65
2022-10-19T05:15:58.651Z,69.69
2022-10-19T05:18:30.365Z,69.93
2022-10-19T05:21:10.954Z,69.58
2022-10-19T05:23:43.665Z,69.60
2022-10-19T05:26:20.114Z,70.00
2022-10-19T05:29:02.014Z,69.28
2022-10-19T05:31:37.090Z,69.98
2022-10-19T05:36:45.088Z,70.01
2022-10-19T05:39:20.167Z,69.56
2022-10-19T05:41:52.759Z,69.71
2022-10-19T05:44:27.570Z,70.28
2022-10-19T05:46:58.907Z,70.16
2022-10-19T05:49:31.140Z,69.49
2022-10-19T05:52:04.229Z,69.74
2022-10-19T05:54:38.385Z,70.01
2022-10-19T05:57:09.752Z,69.85
2022-10-19T05:59:43.424Z,70.03
2022-10-19T06:05:04.551Z,69.79
2022-10-19T06:07:36.133Z,71.09
2022-10-19T06:10:08.307Z,70.30
2022-10-19T06:12:40.216Z,69.52
2022-10-19T06:15:12.053Z,69.87
2022-10-19T06:17:58.379Z,69.65
2022-10-19T06:20:30.998Z,70.09
2022-10-19T06:23:04.064Z,69.54
2022-10-19T06:25:36.602Z,69.42
2022-10-19T06:28:08.158Z,69.44
2022-10-19T06:30:42.990Z,70.74
2022-10-19T06:33:15.289Z,69.68
2022-10-19T06:35:46.777Z,69.54
2022-10-19T06:38:22.826Z,69.66
2022-10-19T06:40:54.276Z,69.24
2022-10-19T06:43:27.255Z,69.06
2022-10-19T06:45:58.918Z,69.30
2022-10-19T06:48:30.276Z,69.53
2022-10-19T06:51:06.218Z,69.14
2022-10-19T06:53:39.269Z,69.36
2022-10-19T06:56:11.834Z,68.79
2022-10-19T06:58:43.329Z,69.02
2022-10-19T07:01:15.572Z,69.22
2022-10-19T07:03:46.996Z,68.79
2022-10-19T07:06:18.884Z,69.40
2022-10-19T07:08:50.521Z,68.64
2022-10-19T07:11:23.803Z,68.67
2022-10-19T07:13:55.669Z,69.00
2022-10-19T07:16:28.364Z,69.21
2022-10-19T07:19:02.950Z,68.91
2022-10-19T07:21:35.315Z,68.48
2022-10-19T07:24:07.083Z,69.85
2022-10-19T07:26:38.449Z,69.34
2022-10-19T07:29:10.040Z,69.15
2022-10-19T07:31:41.958Z,68.44
2022-10-19T07:34:15.444Z,68.43
2022-10-19T07:36:49.471Z,68.56
2022-10-19T07:39:20.776Z,68.81
2022-10-19T07:41:52.602Z,68.68
2022-10-19T07:44:23.975Z,68.25
2022-10-19T07:46:55.205Z,68.57
2022-10-19T07:49:26.619Z,68.23
2022-10-19T07:52:00.410Z,67.98
2022-10-19T07:54:32.285Z,68.24
2022-10-19T07:57:03.655Z,67.79
2022-10-19T07:59:36.204Z,68.45
2022-10-19T08:02:09.250Z,68.19
2022-10-19T08:05:01.690Z,67.96
2022-10-19T08:07:37.874Z,68.11
2022-10-19T08:10:14.330Z,67.69
2022-10-19T08:12:49.335Z,67.93
2022-10-19T08:15:22.753Z,67.84
2022-10-19T08:17:53.908Z,68.68
2022-10-19T08:20:30.308Z,67.55
2022-10-19T08:23:03.508Z,67.52
2022-10-19T08:25:34.897Z,67.45
2022-10-19T08:28:06.338Z,67.69
2022-10-19T08:30:39.275Z,67.42
2022-10-19T08:33:13.753Z,67.71
2022-10-19T08:35:45.001Z,67.22
2022-10-19T08:38:16.195Z,67.47
2022-10-19T08:40:49.111Z,67.14
2022-10-19T08:43:37.446Z,66.83
2022-10-19T08:46:15.489Z,66.63
2022-10-19T08:48:48.059Z,66.73
2022-10-19T08:51:20.208Z,66.75
2022-10-19T08:53:56.374Z,66.78
2022-10-19T08:56:50.522Z,66.66
2022-10-19T08:59:42.429Z,66.55
2022-10-19T09:02:29.639Z,66.78
2022-10-19T09:05:16.033Z,66.33
2022-10-19T09:07:49.022Z,66.28
2022-10-19T09:10:22.538Z,66.17
2022-10-19T09:13:02.346Z,66.37
2022-10-19T09:15:44.070Z,66.48
2022-10-19T09:18:21.266Z,66.78
2022-10-19T09:21:03.011Z,66.64
2022-10-19T09:23:41.019Z,66.77
2022-10-19T09:26:24.519Z,66.60
2022-10-19T09:29:05.439Z,66.61
2022-10-19T09:31:40.824Z,66.68
2022-10-19T09:34:38.383Z,66.95
2022-10-19T09:37:21.771Z,66.92
2022-10-19T09:39:55.958Z,67.15
2022-10-19T09:42:38.163Z,67.58
2022-10-19T09:45:27.906Z,68.16
2022-10-19T09:48:07.145Z,67.58
2022-10-19T09:50:46.267Z,68.05
2022-10-19T09:53:22.990Z,68.27
2022-10-19T09:56:28.278Z,68.50
2022-10-19T09:59:01.101Z,68.17
2022-10-19T10:01:43.517Z,68.02
2022-10-19T10:04:20.224Z,68.10
2022-10-19T10:06:52.176Z,68.19
2022-10-19T10:09:30.566Z,68.23
2022-10-19T10:12:02.217Z,68.02
2022-10-19T10:14:41.342Z,68.02
2022-10-19T10:17:25.018Z,68.99
2022-10-19T10:20:02.306Z,70.00
2022-10-19T10:22:38.032Z,70.50
2022-10-19T10:25:20.489Z,71.95
2022-10-19T10:28:18.765Z,72.02
2022-10-19T10:30:55.458Z,71.42
2022-10-19T10:33:45.751Z,73.05
2022-10-19T10:36:17.383Z,72.14
2022-10-19T10:38:54.106Z,72.19
2022-10-19T10:41:26.631Z,71.52
2022-10-19T10:44:04.832Z,72.07
2022-10-19T10:47:01.139Z,73.11
2022-10-19T10:49:38.153Z,72.41
2022-10-19T10:52:14.636Z,73.62
2022-10-19T10:55:07.078Z,74.72
2022-10-19T10:57:43.733Z,73.82
2022-10-19T11:00:21.220Z,73.73
2022-10-19T11:03:04.920Z,73.73
2022-10-19T11:05:42.794Z,74.04
2022-10-19T11:08:26.006Z,74.09
2022-10-19T11:11:18.825Z,74.41
2022-10-19T11:13:52.782Z,73.74
2022-10-19T11:16:45.836Z,73.78
2022-10-19T11:19:34.954Z,75.33
2022-10-19T11:22:21.256Z,75.13
2022-10-19T11:25:13.121Z,73.87
2022-10-19T11:27:54.720Z,74.96
2022-10-19T11:30:27.585Z,74.41
2022-10-19T11:33:16.898Z,74.38
2022-10-19T11:35:59.645Z,73.75
2022-10-19T11:38:54.746Z,74.00
2022-10-19T11:41:45.723Z,73.94
2022-10-19T11:44:25.597Z,73.37
2022-10-19T11:47:21.488Z,73.39
2022-10-19T11:50:14.866Z,73.33
2022-10-19T11:53:18.399Z,73.17
2022-10-19T11:56:17.242Z,73.16
2022-10-19T11:58:59.872Z,73.25
2022-10-19T12:01:45.116Z,74.53
2022-10-19T12:04:32.451Z,73.05
2022-10-19T12:07:30.932Z,72.84
2022-10-19T12:10:27.005Z,72.42
2022-10-19T12:13:12.319Z,72.48
2022-10-19T12:15:55.692Z,72.20
2022-10-19T12:18:55.929Z,72.69
2022-10-19T12:21:33.766Z,72.15
2022-10-19T12:24:08.494Z,72.16
2022-10-19T12:26:42.158Z,72.11
2022-10-19T12:29:28.201Z,72.43
2022-10-19T12:32:01.835Z,73.22
2022-10-19T12:34:57.080Z,73.67
2022-10-19T12:37:51.785Z,73.84
2022-10-19T12:40:53.481Z,75.64
2022-10-19T12:43:56.993Z,75.96
2022-10-19T12:46:49.792Z,74.35
2022-10-19T12:49:32.824Z,73.77
2022-10-19T12:52:06.249Z,73.86
2022-10-19T12:54:43.688Z,73.54
2022-10-19T12:57:30.801Z,75.62
2022-10-19T13:00:29.990Z,76.49
2022-10-19T13:03:26.215Z,76.76
2022-10-19T13:06:04.415Z,77.15
2022-10-19T13:08:48.614Z,77.68
2022-10-19T13:11:21.995Z,77.63
2022-10-19T13:14:38.489Z,78.27
2022-10-19T13:17:10.774Z,77.75
2022-10-19T13:19:42.240Z,78.60
2022-10-19T13:22:31.946Z,78.54
2022-10-19T13:25:30.980Z,78.71
2022-10-19T13:28:08.333Z,78.66
2022-10-19T13:31:03.383Z,79.44
2022-10-19T13:33:49.170Z,79.67
2022-10-19T13:36:22.542Z,79.49
2022-10-19T13:39:07.996Z,79.59
2022-10-19T13:41:39.972Z,79.96
2022-10-19T13:44:28.264Z,79.37
2022-10-19T13:47:22.922Z,79.52
2022-10-19T13:50:32.851Z,79.54
2022-10-19T13:53:19.625Z,79.91
2022-10-19T13:56:02.186Z,79.84
2022-10-19T13:59:08.224Z,80.68
2022-10-19T14:02:06.044Z,80.79
2022-10-19T14:05:10.500Z,80.84
2022-10-19T14:07:56.677Z,80.06
2022-10-19T14:10:32.866Z,80.41
2022-10-19T14:13:16.859Z,81.24
2022-10-19T14:15:59.018Z,80.98
2022-10-19T14:18:33.650Z,80.66
2022-10-19T14:21:19.364Z,80.55
2022-10-19T14:23:53.198Z,81.21
2022-10-19T14:26:27.794Z,79.40
2022-10-19T14:29:02.453Z,78.25
2022-10-19T14:31:38.482Z,76.99
2022-10-19T14:34:15.215Z,77.33
2022-10-19T14:36:49.955Z,76.23
2022-10-19T14:39:40.893Z,75.80
2022-10-19T14:42:13.692Z,74.98
2022-10-19T14:44:46.042Z,74.52
2022-10-19T14:47:31.736Z,73.55
2022-10-19T14:50:05.883Z,73.23
2022-10-19T14:52:41.740Z,71.89
2022-10-19T14:55:22.894Z,71.21
2022-10-19T14:57:56.025Z,71.00
2022-10-19T15:00:34.853Z,71.11
2022-10-19T15:03:14.516Z,69.32
2022-10-19T15:05:50.778Z,68.95
2022-10-19T15:08:38.820Z,68.74
2022-10-19T15:11:50.511Z,68.23
2022-10-19T15:14:31.459Z,67.63
2022-10-19T15:17:05.673Z,67.05
2022-10-19T15:19:40.272Z,66.27
2022-10-19T15:22:34.215Z,66.23
2022-10-19T15:25:08.816Z,67.28
2022-10-19T15:27:54.675Z,67.43
2022-10-19T15:30:34.483Z,66.37
2022-10-19T15:33:06.496Z,66.70
2022-10-19T15:35:40.949Z,66.51
2022-10-19T15:38:21.626Z,64.96
2022-10-19T15:41:05.602Z,64.70
2022-10-19T15:43:40.578Z,64.80
2022-10-19T15:46:45.245Z,64.41
2022-10-19T15:49:29.191Z,63.77
2022-10-19T15:52:00.712Z,64.19
2022-10-19T15:54:33.729Z,63.70
2022-10-19T15:57:29.579Z,63.32
2022-10-19T16:00:07.030Z,63.09
2022-10-19T16:02:38.702Z,62.76
2022-10-19T16:05:10.868Z,63.23
2022-10-19T16:07:43.530Z,63.08
2022-10-19T16:10:17.403Z,62.71
2022-10-19T16:12:49.000Z,62.12
2022-10-19T16:15:26.194Z,62.34
2022-10-19T16:18:03.122Z,61.39
2022-10-19T16:20:37.602Z,61.55
2022-10-19T16:23:09.058Z,62.07
2022-10-19T16:25:40.691Z,61.06
2022-10-19T16:28:15.155Z,61.26
2022-10-19T16:30:46.649Z,62.75
2022-10-19T16:33:18.363Z,63.25
2022-10-19T16:35:50.764Z,62.37
2022-10-19T16:38:22.116Z,62.59
2022-10-19T16:40:53.534Z,62.29
2022-10-19T16:43:26.647Z,62.43
2022-10-19T16:45:58.548Z,61.63
2022-10-19T16:48:30.492Z,61.32
2022-10-19T16:51:08.290Z,60.76
2022-10-19T16:53:43.096Z,60.94
2022-10-19T16:56:16.022Z,61.00
2022-10-19T16:58:47.729Z,60.62
2022-10-19T17:01:21.671Z,60.63
2022-10-19T17:03:53.286Z,60.39
2022-10-19T17:06:26.773Z,59.97
2022-10-19T17:09:36.688Z,59.87
2022-10-19T17:11:51.568Z,59.32
2022-10-19T17:14:25.745Z,59.51
2022-10-19T17:16:57.195Z,59.47
2022-10-19T17:19:28.661Z,59.42
2022-10-19T17:22:00.688Z,59.40
2022-10-19T17:24:34.863Z,58.69
2022-10-19T17:27:06.241Z,59.08
2022-10-19T17:29:38.129Z,58.88
2022-10-19T17:32:09.572Z,58.84
2022-10-19T17:34:40.992Z,58.68
2022-10-19T17:37:12.784Z,58.32
2022-10-19T17:39:44.066Z,58.73
2022-10-19T17:42:15.397Z,57.94
2022-10-19T17:44:47.084Z,57.88
2022-10-19T17:47:18.235Z,57.88
2022-10-19T17:49:49.500Z,58.07
2022-10-19T17:52:21.524Z,57.64
2022-10-19T17:55:12.278Z,57.53
2022-10-19T17:57:44.305Z,57.76
2022-10-19T18:00:16.036Z,57.83
2022-10-19T18:02:48.028Z,57.55
2022-10-19T18:05:18.642Z,56.15
2022-10-19T18:07:50.754Z,57.21
2022-10-19T18:10:22.080Z,57.08
2022-10-19T18:13:02.237Z,56.77
2022-10-19T18:15:33.589Z,56.48
2022-10-19T18:18:05.328Z,56.49
2022-10-19T18:20:40.330Z,56.49
2022-10-19T18:23:11.521Z,56.32
2022-10-19T18:25:54.056Z,55.93
2022-10-19T18:28:25.697Z,55.70
2022-10-19T18:30:56.850Z,55.71
2022-10-19T18:33:30.281Z,55.44
2022-10-19T18:36:03.782Z,55.59
2022-10-19T18:38:35.054Z,55.60
2022-10-19T18:41:15.348Z,54.90
2022-10-19T18:43:46.568Z,54.93
2022-10-19T18:46:20.036Z,55.12
2022-10-19T18:48:52.361Z,55.04
2022-10-19T18:51:25.825Z,55.08
2022-10-19T18:53:57.478Z,55.17
2022-10-19T18:56:30.664Z,54.76
2022-10-19T18:59:01.887Z,54.98
2022-10-19T19:01:33.537Z,54.96
2022-10-19T19:04:11.026Z,54.26
2022-10-19T19:06:43.283Z,54.93
2022-10-19T19:09:14.615Z,54.33
2022-10-19T19:11:45.776Z,54.88
2022-10-19T19:14:19.665Z,54.54
2022-10-19T19:16:51.234Z,55.06
2022-10-19T19:19:22.816Z,54.80
2022-10-19T19:21:54.087Z,54.73
2022-10-19T19:24:47.156Z,54.51
2022-10-19T19:27:18.448Z,54.78
2022-10-19T19:29:51.326Z,54.57
2022-10-19T19:32:23.155Z,54.35
2022-10-19T19:34:55.067Z,54.46
2022-10-19T19:37:26.296Z,54.41
2022-10-19T19:39:57.484Z,54.69
2022-10-19T19:42:28.685Z,54.36
2022-10-19T19:45:00.129Z,54.63
2022-10-19T19:47:31.615Z,54.45
2022-10-19T19:50:02.844Z,54.36
2022-10-19T19:52:38.074Z,53.87
2022-10-19T19:55:11.433Z,54.03
2022-10-19T19:57:42.592Z,54.18
2022-10-19T20:00:14.366Z,53.71
2022-10-19T20:02:45.409Z,53.69
2022-10-19T20:05:17.362Z,54.00
2022-10-19T20:07:48.526Z,53.87
2022-10-19T20:10:20.238Z,53.81
2022-10-19T20:12:51.576Z,53.82
2022-10-19T20:15:23.047Z,54.02
2022-10-19T20:17:54.171Z,53.92
2022-10-19T20:20:25.370Z,54.01
2022-10-19T20:22:56.628Z,53.43
2022-10-19T20:25:27.844Z,53.52
2022-10-19T20:27:59.092Z,53.14
2022-10-19T20:30:30.359Z,53.44
2022-10-19T20:33:01.535Z,53.02
2022-10-19T20:35:32.665Z,53.32
2022-10-19T20:38:05.173Z,53.17
2022-10-19T20:40:36.319Z,52.91
2022-10-19T20:43:07.460Z,52.69
2022-10-19T20:45:38.842Z,52.39
2022-10-19T20:48:10.127Z,52.55
2022-10-19T20:50:41.844Z,52.99
2022-10-19T20:53:13.851Z,52.79
2022-10-19T20:55:45.041Z,52.63
2022-10-19T20:58:16.596Z,52.69
2022-10-19T21:00:47.761Z,52.21
2022-10-19T21:03:19.202Z,52.29
2022-10-19T21:05:50.599Z,52.14
2022-10-19T21:08:22.029Z,51.67
2022-10-19T21:10:53.175Z,51.63
2022-10-19T21:13:24.432Z,51.52
2022-10-19T21:15:55.632Z,51.50
2022-10-19T21:18:26.805Z,51.55
2022-10-19T21:20:58.066Z,51.45
2022-10-19T21:23:29.879Z,51.46
2022-10-19T21:26:01.268Z,51.28
2022-10-19T21:28:32.431Z,52.05
2022-10-19T21:31:11.272Z,50.65
2022-10-19T21:33:42.498Z,51.39
2022-10-19T21:36:15.363Z,51.39
2022-10-19T21:38:46.688Z,51.28
2022-10-19T21:41:23.731Z,50.95
2022-10-19T21:43:57.531Z,50.88
2022-10-19T21:46:29.285Z,51.43
2022-10-19T21:49:00.738Z,51.51
2022-10-19T21:51:48.857Z,51.29
2022-10-19T21:54:23.288Z,51.06
2022-10-19T21:56:56.383Z,51.32
2022-10-19T21:59:27.789Z,51.71
2022-10-19T22:01:59.122Z,51.28
2022-10-19T22:04:30.495Z,51.79
2022-10-19T22:07:02.646Z,51.65
2022-10-19T22:09:34.968Z,51.30
2022-10-19T22:12:06.274Z,51.11
2022-10-19T22:14:37.467Z,51.52
2022-10-19T22:17:08.657Z,51.33
2022-10-19T22:19:40.666Z,51.37
2022-10-19T22:22:11.857Z,51.40
2022-10-19T22:24:43.307Z,51.09
2022-10-19T22:27:14.520Z,51.16
2022-10-19T22:29:46.316Z,50.78
2022-10-19T22:32:17.500Z,50.68
2022-10-19T22:34:48.651Z,50.53
2022-10-19T22:37:19.787Z,50.46
2022-10-19T22:39:50.938Z,50.32
2022-10-19T22:42:34.531Z,50.08
2022-10-19T22:45:06.360Z,50.46
2022-10-19T22:47:37.557Z,50.35
2022-10-19T22:50:10.858Z,50.04
2022-10-19T22:52:42.150Z,50.25
2022-10-19T22:55:13.387Z,50.42
2022-10-19T22:57:44.524Z,49.79
2022-10-19T23:00:15.940Z,50.20
2022-10-19T23:02:47.178Z,50.52
2022-10-19T23:05:18.846Z,51.44
2022-10-19T23:08:20.536Z,52.56
2022-10-19T23:10:51.753Z,53.54
2022-10-19T23:13:22.971Z,53.76
2022-10-19T23:15:54.175Z,54.45
2022-10-19T23:18:25.369Z,54.36
2022-10-19T23:21:02.050Z,55.71
2022-10-19T23:23:35.141Z,56.00
2022-10-19T23:26:53.557Z,60.13
2022-10-19T23:29:43.605Z,64.52
2022-10-19T23:32:14.768Z,65.00
2022-10-19T23:34:48.299Z,67.51
2022-10-19T23:37:19.765Z,67.65
2022-10-19T23:39:51.344Z,70.14
2022-10-19T23:42:22.458Z,70.40
2022-10-19T23:44:53.601Z,71.09
2022-10-19T23:47:25.293Z,69.60
2022-10-19T23:49:56.424Z,71.69
2022-10-19T23:52:33.671Z,72.26
2022-10-19T23:55:44.571Z,74.16
2022-10-19T23:58:15.758Z,71.59
